logo
Search for airport 
image banner adimage banner adimage banner ad
image banner ad

FAEL - King Phalo

Located in East London, South Africa

ICAO - FAEL, IATA - ELS

Data provided by Airmate  

General information

Coordinates: S33°2'6" E27°49'17"
Elevation is 435 feet MSL.
Magnetic variation is -28° East
Rated:
View ratings:
[VIEW]
View others Airports in Eastern Cape

Operational data

Special qualification required
Current time UTC:
Current local time:
Weather
METAR: FAEL 270300Z 26011KT 9999 SCT037 16/11 Q1026
TAF: TAF FAEL 270300Z 2704/2715 26013KT 9999 SCT035 TX22/2711Z TN16/2704Z BECMG 2709/2711 12009KT CAVOK
View NOTAMs / SUP AIP / TFR affecting this airport [VIEW]
Communications frequencies: [VIEW]

Runways:

RWY identifierQFULength (ft)Width (ft)SurfaceLDA (ft)
1182°6336145ASPH6362
29262°6336145ASPH6362
0637°5197143ASPH5197
24217°5197143ASPH5197

Airport contact information

Address: East London South Africa

Other aviation service providers

Flight schools

Border Aviation

Border Aviation

Satellite view of FAEL